Main page
METAR-TAF:

METAR-TAF

Airports :

Algeciras Heliport

Algeciras, Spain

latitude: 36-07-44N, longitude: 05-26-28W, elevation: 30 m

Current weather observation

The report was made 25 minutes ago, at 10:00 UTC
Wind 2 kt from variable directions
Temperature 18°C
Humidity 73%
Pressure 1017 hPa
Visibility 10 km or more
Few clouds at a height of 3000 ft

METAR: LEAG 061000Z AUTO VRB02KT 9999 FEW030 18/13 Q1017

Time: 11:25 (10:25 UTC)

Forecast

The report was made 2 hours and 25 minutes ago, at 08:00 UTC
Forecast valid from 06 at 09 UTC to 07 at 09 UTC
Wind 5 kt from the West
Visibility 10 km or more
Few clouds at a height of 1500 ft

TAF: LEAG 060800Z 0609/0709 28005KT 9999 FEW015 TX17/0613Z TN15/0706Z

Weather observations and forecasts of more than 4000 airports (METAR and TAF reports).

The available stations are represented by yellow and red dots on the map.

Hover mouse over dot to see the name of the station.

Then click to see weather observations and forecasts.

To change the map : click on the green buttons with a black cross to zoom in, on the green button with a dash to zoom out, or on the green arrows for adjacent maps.


METAR-TAF: